createdAt,value
2019-03-02T00:01:49.557Z,23.47
2019-03-02T00:11:52.833Z,23.60
2019-03-02T00:21:53.090Z,25.57
2019-03-02T00:31:54.083Z,25.77
2019-03-02T00:41:55.050Z,24.80
2019-03-02T00:51:55.782Z,25.40
2019-03-02T01:01:56.522Z,24.83
2019-03-02T01:11:57.199Z,25.30
2019-03-02T01:21:57.876Z,25.63
2019-03-02T01:31:58.541Z,26.20
2019-03-02T01:42:01.558Z,29.00
2019-03-02T01:52:02.523Z,25.80
2019-03-02T02:02:03.623Z,26.80
2019-03-02T02:12:04.321Z,24.77
2019-03-02T02:22:05.293Z,22.03
2019-03-02T02:32:06.033Z,21.50
2019-03-02T02:42:07.024Z,18.97
2019-03-02T02:52:07.699Z,17.83
2019-03-02T03:02:10.909Z,18.70
2019-03-02T03:12:11.265Z,18.73
2019-03-02T03:22:11.946Z,20.33
2019-03-02T03:32:12.993Z,21.20
2019-03-02T03:42:22.469Z,20.47
2019-03-02T03:52:16.187Z,21.00
2019-03-02T04:02:16.960Z,18.60
2019-03-02T04:12:19.772Z,16.67
2019-03-02T04:22:20.432Z,15.13
2019-03-02T04:32:27.267Z,15.50
2019-03-02T04:42:24.171Z,14.87
2019-03-02T04:52:26.123Z,15.10
2019-03-02T05:02:26.819Z,16.50
2019-03-02T05:12:27.771Z,16.10
2019-03-02T05:22:28.550Z,15.70
2019-03-02T05:32:31.507Z,14.80
2019-03-02T05:42:32.159Z,15.37
2019-03-02T05:52:34.070Z,16.67
2019-03-02T06:02:34.719Z,17.20
2019-03-02T06:12:35.638Z,18.63
2019-03-02T06:22:36.613Z,18.60
2019-03-02T06:32:37.562Z,18.07
2019-03-02T06:42:42.003Z,18.97
2019-03-02T06:52:41.052Z,17.53
2019-03-02T07:02:41.947Z,18.23
2019-03-02T07:12:45.725Z,20.57
2019-03-02T07:22:48.618Z,18.83
2019-03-02T07:32:49.951Z,20.57
2019-03-02T07:42:51.130Z,21.00
2019-03-02T07:52:53.045Z,20.37
2019-03-02T08:02:56.136Z,21.87
2019-03-02T08:12:57.821Z,25.37
2019-03-02T08:22:59.841Z,22.80
2019-03-02T08:33:00.802Z,23.63
2019-03-02T08:43:01.515Z,25.10
2019-03-02T08:53:02.528Z,24.53
2019-03-02T09:03:03.941Z,24.53
2019-03-02T09:13:04.612Z,21.47
2019-03-02T09:23:05.444Z,21.07
2019-03-02T09:33:06.341Z,19.27
2019-03-02T09:43:07.656Z,17.47
2019-03-02T09:53:08.515Z,21.30
2019-03-02T10:03:09.367Z,21.30
2019-03-02T10:13:10.142Z,21.73
2019-03-02T10:23:11.012Z,21.77
2019-03-02T10:33:11.684Z,22.40
2019-03-02T10:43:12.566Z,19.83
2019-03-02T10:53:13.506Z,18.03
2019-03-02T11:03:14.155Z,14.33
2019-03-02T11:13:16.031Z,16.30
2019-03-02T11:23:19.972Z,15.87
2019-03-02T11:33:20.303Z,15.93
2019-03-02T11:43:22.408Z,15.23
2019-03-02T11:53:37.691Z,15.40
2019-03-02T12:03:39.940Z,14.23
2019-03-02T12:13:40.652Z,14.30
2019-03-02T12:23:41.570Z,11.33
2019-03-02T12:33:42.673Z,11.60
2019-03-02T12:43:44.229Z,11.20
2019-03-02T12:53:45.859Z,11.07
2019-03-02T13:03:46.526Z,12.47
2019-03-02T13:13:47.504Z,12.20
2019-03-02T13:23:48.445Z,12.40
2019-03-02T13:33:49.098Z,12.90
2019-03-02T13:43:49.991Z,11.50
2019-03-02T13:53:53.587Z,12.07
2019-03-02T14:03:53.423Z,11.17
2019-03-02T14:13:54.124Z,11.07
2019-03-02T14:23:54.778Z,10.93
2019-03-02T14:33:55.450Z,9.73
2019-03-02T14:43:57.133Z,8.10
2019-03-02T14:53:58.778Z,6.83
2019-03-02T15:04:01.753Z,5.37
2019-03-02T15:14:02.538Z,4.63
2019-03-02T15:24:04.679Z,4.80
2019-03-02T15:34:05.756Z,4.70
2019-03-02T15:44:10.666Z,3.73
2019-03-02T15:54:10.984Z,5.23
2019-03-02T16:04:11.862Z,3.33
2019-03-02T16:14:12.660Z,3.80
2019-03-02T16:24:13.345Z,3.20
2019-03-02T16:34:14.052Z,2.87
2019-03-02T16:44:14.780Z,2.30
2019-03-02T16:54:16.606Z,1.90
2019-03-02T17:04:18.806Z,2.10
2019-03-02T17:14:20.364Z,1.73
2019-03-02T17:24:23.058Z,1.63
2019-03-02T17:34:23.519Z,2.10
2019-03-02T17:44:24.436Z,1.70
2019-03-02T17:54:25.130Z,1.80
2019-03-02T18:04:26.794Z,2.33
2019-03-02T18:14:27.763Z,1.77
2019-03-02T18:24:31.942Z,1.27
2019-03-02T18:34:31.351Z,1.50
2019-03-02T18:44:32.032Z,1.40
2019-03-02T18:54:32.923Z,1.93
2019-03-02T19:04:36.867Z,2.50
2019-03-02T19:14:36.430Z,2.13
2019-03-02T19:24:37.087Z,1.80
2019-03-02T19:34:37.771Z,1.40
2019-03-02T19:44:38.466Z,1.37
2019-03-02T19:54:39.383Z,1.70
2019-03-02T20:04:40.024Z,1.30
2019-03-02T20:14:40.940Z,1.80
2019-03-02T20:24:41.597Z,1.63
2019-03-02T20:34:43.543Z,1.57
2019-03-02T20:44:44.251Z,1.83
2019-03-02T20:54:45.927Z,2.13
2019-03-02T21:04:46.580Z,2.47
2019-03-02T21:14:47.320Z,2.93
2019-03-02T21:24:48.016Z,3.70
2019-03-02T21:34:48.983Z,3.50
2019-03-02T21:44:49.639Z,3.50
2019-03-02T21:54:50.535Z,3.93
2019-03-02T22:04:54.120Z,3.37
2019-03-02T22:14:55.836Z,3.20
2019-03-02T22:24:56.704Z,3.20
2019-03-02T22:35:00.543Z,3.17
2019-03-02T22:45:01.316Z,3.60
2019-03-02T22:55:05.943Z,3.47
2019-03-02T23:05:06.673Z,3.20
2019-03-02T23:15:15.899Z,2.40
2019-03-02T23:25:16.569Z,2.00
2019-03-02T23:35:20.544Z,2.07
2019-03-02T23:45:22.215Z,1.73
2019-03-02T23:55:22.949Z,1.80
